createdAt,value
2018-11-12T00:00:21.194Z,9.83
2018-11-12T00:02:56.180Z,9.92
2018-11-12T00:05:27.072Z,10.08
2018-11-12T00:07:57.919Z,10.09
2018-11-12T00:10:28.753Z,10.08
2018-11-12T00:12:59.485Z,10.09
2018-11-12T00:15:30.231Z,10.19
2018-11-12T00:18:01.037Z,10.12
2018-11-12T00:20:32.915Z,10.15
2018-11-12T00:23:06.334Z,10.08
2018-11-12T00:25:37.172Z,10.08
2018-11-12T00:28:09.821Z,10.16
2018-11-12T00:30:40.571Z,10.28
2018-11-12T00:33:11.327Z,10.33
2018-11-12T00:35:42.939Z,10.36
2018-11-12T00:38:13.711Z,10.46
2018-11-12T00:40:44.589Z,10.34
2018-11-12T00:43:15.294Z,10.43
2018-11-12T00:45:47.753Z,10.37
2018-11-12T00:48:19.991Z,10.37
2018-11-12T00:50:52.428Z,10.41
2018-11-12T00:53:23.323Z,10.44
2018-11-12T00:55:54.057Z,10.43
2018-11-12T00:58:24.957Z,10.36
2018-11-12T01:00:56.088Z,10.39
2018-11-12T01:03:26.766Z,10.46
2018-11-12T01:05:57.480Z,10.40
2018-11-12T01:08:28.213Z,10.34
2018-11-12T01:10:59.075Z,10.20
2018-11-12T01:13:29.802Z,10.24
2018-11-12T01:16:00.642Z,10.13
2018-11-12T01:18:34.728Z,10.13
2018-11-12T01:21:10.829Z,10.16
2018-11-12T01:23:42.801Z,10.13
2018-11-12T01:26:13.646Z,10.11
2018-11-12T01:28:44.325Z,10.11
2018-11-12T01:31:15.128Z,10.11
2018-11-12T01:33:45.864Z,10.09
2018-11-12T01:36:16.622Z,10.09
2018-11-12T01:38:47.317Z,10.15
2018-11-12T01:41:18.050Z,10.11
2018-11-12T01:43:48.788Z,10.07
2018-11-12T01:46:19.468Z,10.07
2018-11-12T01:48:50.767Z,10.08
2018-11-12T01:51:21.422Z,10.11
2018-11-12T01:53:52.113Z,10.15
2018-11-12T01:56:22.837Z,10.25
2018-11-12T01:58:53.547Z,10.18
2018-11-12T02:01:24.238Z,10.31
2018-11-12T02:03:55.026Z,10.35
2018-11-12T02:06:26.358Z,10.40
2018-11-12T02:08:57.143Z,10.48
2018-11-12T02:11:27.847Z,10.52
2018-11-12T02:13:58.551Z,10.56
2018-11-12T02:16:29.360Z,10.55
2018-11-12T02:19:00.018Z,10.63
2018-11-12T02:21:33.311Z,10.65
2018-11-12T02:24:04.910Z,10.67
2018-11-12T02:26:35.605Z,10.66
2018-11-12T02:29:07.163Z,10.63
2018-11-12T02:31:37.962Z,10.65
2018-11-12T02:34:09.012Z,10.56
2018-11-12T02:36:41.700Z,10.49
2018-11-12T02:39:14.380Z,10.42
2018-11-12T02:41:45.163Z,10.45
2018-11-12T02:44:15.892Z,10.48
2018-11-12T02:46:47.102Z,10.50
2018-11-12T02:49:17.734Z,10.56
2018-11-12T02:51:48.470Z,10.53
2018-11-12T02:54:19.206Z,10.49
2018-11-12T02:56:50.042Z,10.45
2018-11-12T02:59:20.721Z,10.40
2018-11-12T03:01:51.911Z,10.42
2018-11-12T03:04:23.151Z,10.39
2018-11-12T03:06:54.042Z,10.37
2018-11-12T03:09:24.725Z,10.20
2018-11-12T03:11:55.517Z,10.10
2018-11-12T03:14:26.935Z,10.03
2018-11-12T03:16:57.714Z,9.95
2018-11-12T03:19:28.425Z,9.89
2018-11-12T03:21:59.131Z,9.89
2018-11-12T03:24:30.023Z,9.88
2018-11-12T03:27:05.096Z,9.85
2018-11-12T03:29:35.821Z,9.68
2018-11-12T03:32:07.847Z,9.60
2018-11-12T03:34:38.910Z,9.52
2018-11-12T03:37:09.817Z,9.48
2018-11-12T03:39:40.660Z,9.41
2018-11-12T03:42:11.338Z,9.36
2018-11-12T03:44:42.075Z,9.35
2018-11-12T03:47:12.861Z,9.27
2018-11-12T03:49:43.521Z,9.17
2018-11-12T03:52:14.403Z,9.19
2018-11-12T03:54:48.202Z,9.20
2018-11-12T03:57:18.968Z,9.00
2018-11-12T03:59:49.657Z,8.98
2018-11-12T04:02:20.390Z,9.01
2018-11-12T04:04:51.897Z,9.08
2018-11-12T04:07:22.779Z,9.13
2018-11-12T04:09:53.504Z,9.23
2018-11-12T04:12:24.256Z,9.26
2018-11-12T04:14:55.660Z,9.21
2018-11-12T04:17:26.392Z,9.23
2018-11-12T04:19:57.115Z,9.32
2018-11-12T04:22:27.839Z,9.26
2018-11-12T04:24:59.251Z,9.17
2018-11-12T04:27:30.085Z,9.15
2018-11-12T04:30:00.834Z,9.01
2018-11-12T04:32:34.952Z,8.98
2018-11-12T04:35:05.903Z,8.96
2018-11-12T04:37:36.713Z,8.93
2018-11-12T04:40:09.850Z,8.90
2018-11-12T04:42:41.109Z,8.87
2018-11-12T04:45:14.738Z,8.76
2018-11-12T04:47:46.157Z,8.79
2018-11-12T04:50:20.442Z,8.89
2018-11-12T04:52:54.240Z,8.98
2018-11-12T04:55:25.754Z,8.95
2018-11-12T04:57:56.427Z,8.85
2018-11-12T05:00:28.914Z,8.88
2018-11-12T05:02:59.936Z,8.92
2018-11-12T05:05:34.610Z,8.96
2018-11-12T05:08:07.850Z,8.96
2018-11-12T05:10:38.539Z,8.98
2018-11-12T05:13:09.258Z,8.95
2018-11-12T05:15:39.938Z,8.81
2018-11-12T05:18:11.243Z,8.88
2018-11-12T05:20:41.949Z,8.87
2018-11-12T05:23:12.814Z,8.90
2018-11-12T05:25:43.533Z,8.98
2018-11-12T05:28:17.077Z,8.93
2018-11-12T05:30:47.731Z,8.96
2018-11-12T05:33:18.547Z,9.02
2018-11-12T05:35:49.852Z,9.08
2018-11-12T05:38:20.728Z,9.06
2018-11-12T05:40:53.044Z,9.09
2018-11-12T05:43:23.802Z,9.12
2018-11-12T05:45:54.518Z,9.11
2018-11-12T05:48:25.302Z,9.14
2018-11-12T05:50:55.962Z,9.13
2018-11-12T05:53:26.724Z,9.12
2018-11-12T05:55:58.350Z,9.13
2018-11-12T05:58:35.358Z,9.25
2018-11-12T06:01:06.802Z,9.28
2018-11-12T06:03:38.314Z,9.31
2018-11-12T06:06:09.141Z,9.27
2018-11-12T06:08:39.837Z,9.32
2018-11-12T06:11:10.518Z,9.32
2018-11-12T06:13:41.282Z,9.30
2018-11-12T06:16:11.986Z,9.31
2018-11-12T06:18:42.690Z,9.25
2018-11-12T06:21:13.502Z,9.26
2018-11-12T06:23:44.329Z,9.19
2018-11-12T06:26:14.984Z,9.12
2018-11-12T06:28:45.718Z,9.06
2018-11-12T06:31:16.756Z,8.81
2018-11-12T06:33:47.415Z,8.62
2018-11-12T06:36:18.134Z,8.38
2018-11-12T06:38:48.840Z,8.36
2018-11-12T06:41:19.573Z,8.28
2018-11-12T06:43:50.310Z,8.34
2018-11-12T06:46:21.027Z,8.28
2018-11-12T06:48:51.814Z,8.28
2018-11-12T06:51:23.729Z,8.32
2018-11-12T06:53:54.445Z,8.29
2018-11-12T06:56:25.212Z,8.27
2018-11-12T06:58:56.040Z,8.16
2018-11-12T07:01:26.753Z,8.11
2018-11-12T07:03:57.461Z,8.07
2018-11-12T07:06:28.320Z,8.05
2018-11-12T07:08:59.003Z,8.07
2018-11-12T07:11:29.738Z,8.11
2018-11-12T07:14:18.186Z,8.14
2018-11-12T07:17:04.735Z,8.13
2018-11-12T07:19:51.160Z,8.17
2018-11-12T07:22:22.329Z,8.13
2018-11-12T07:24:53.014Z,8.20
2018-11-12T07:27:23.800Z,8.26
2018-11-12T07:29:54.557Z,8.21
2018-11-12T07:32:25.278Z,8.20
2018-11-12T07:34:56.387Z,8.21
2018-11-12T07:37:27.046Z,8.40
2018-11-12T07:39:57.788Z,8.51
2018-11-12T07:42:28.595Z,8.41
2018-11-12T07:44:59.877Z,8.37
2018-11-12T07:47:30.567Z,8.36
2018-11-12T07:50:06.354Z,8.41
2018-11-12T07:52:37.357Z,8.49
2018-11-12T07:55:11.764Z,8.44
2018-11-12T07:57:42.963Z,8.48
2018-11-12T08:00:19.056Z,8.50
2018-11-12T08:03:00.071Z,8.56
2018-11-12T08:05:36.267Z,8.47
2018-11-12T08:08:07.516Z,8.55
2018-11-12T08:10:38.426Z,8.55
2018-11-12T08:13:09.634Z,8.46
2018-11-12T08:15:40.461Z,8.42
2018-11-12T08:18:11.162Z,8.46
2018-11-12T08:20:41.886Z,8.61
2018-11-12T08:23:12.682Z,8.70
2018-11-12T08:25:43.402Z,8.90
2018-11-12T08:28:14.387Z,9.00
2018-11-12T08:30:49.417Z,9.07
2018-11-12T08:33:20.567Z,9.01
2018-11-12T08:35:51.314Z,8.98
2018-11-12T08:38:22.099Z,9.00
2018-11-12T08:40:53.370Z,8.83
2018-11-12T08:43:25.564Z,8.99
2018-11-12T08:45:56.254Z,9.01
2018-11-12T08:48:27.093Z,8.91
2018-11-12T08:50:57.808Z,8.88
2018-11-12T08:53:28.638Z,8.92
2018-11-12T08:56:00.039Z,9.06
2018-11-12T08:58:32.547Z,9.08
2018-11-12T09:01:06.154Z,8.93
2018-11-12T09:03:36.881Z,9.31
2018-11-12T09:06:07.945Z,9.11
2018-11-12T09:08:38.645Z,9.05
2018-11-12T09:11:09.314Z,9.21
2018-11-12T09:13:40.018Z,9.31
2018-11-12T09:16:10.730Z,9.40
2018-11-12T09:18:42.078Z,9.59
2018-11-12T09:21:12.851Z,9.75
2018-11-12T09:23:43.652Z,9.81
2018-11-12T09:26:42.792Z,9.71
2018-11-12T09:29:13.661Z,9.93
2018-11-12T09:31:44.397Z,10.02
2018-11-12T09:34:15.519Z,10.13
2018-11-12T09:36:46.329Z,10.30
2018-11-12T09:39:17.184Z,10.45
2018-11-12T09:41:48.843Z,10.57
2018-11-12T09:44:19.592Z,10.54
2018-11-12T09:46:50.393Z,10.87
2018-11-12T09:49:21.091Z,10.81
2018-11-12T09:51:52.091Z,10.71
2018-11-12T09:54:22.823Z,10.92
2018-11-12T09:56:53.455Z,11.25
2018-11-12T09:59:24.215Z,11.64
2018-11-12T10:01:55.317Z,11.75
2018-11-12T10:04:26.738Z,12.00
2018-11-12T10:06:58.183Z,12.37
2018-11-12T10:09:29.136Z,12.50
2018-11-12T10:12:02.969Z,12.53
2018-11-12T10:14:36.826Z,12.60
2018-11-12T10:17:08.692Z,12.49
2018-11-12T10:19:36.928Z,12.97
2018-11-12T10:22:07.889Z,13.80
2018-11-12T10:24:39.411Z,14.22
2018-11-12T10:27:10.511Z,14.16
2018-11-12T10:29:41.658Z,13.95
2018-11-12T10:32:12.313Z,14.82
2018-11-12T10:34:43.122Z,15.12
2018-11-12T10:37:14.582Z,15.20
2018-11-12T10:39:46.048Z,16.25
2018-11-12T10:42:16.758Z,19.04
2018-11-12T10:44:47.435Z,21.18
2018-11-12T10:47:18.081Z,21.44
2018-11-12T10:49:48.862Z,20.21
2018-11-12T10:52:19.543Z,19.40
2018-11-12T10:55:04.036Z,18.93
2018-11-12T10:57:22.400Z,17.93
2018-11-12T10:59:53.153Z,18.38
2018-11-12T11:02:31.622Z,19.44
2018-11-12T11:05:04.354Z,20.68
2018-11-12T11:07:35.084Z,21.03
2018-11-12T11:10:08.062Z,20.90
2018-11-12T11:12:38.826Z,20.50
2018-11-12T11:15:09.890Z,20.48
2018-11-12T11:17:40.646Z,20.17
2018-11-12T11:20:11.466Z,19.64
2018-11-12T11:22:42.178Z,19.47
2018-11-12T11:25:12.904Z,18.92
2018-11-12T11:27:43.683Z,18.15
2018-11-12T11:30:16.500Z,18.81
2018-11-12T11:32:47.690Z,20.89
2018-11-12T11:35:19.411Z,21.82
2018-11-12T11:37:50.214Z,23.93
2018-11-12T11:40:22.409Z,25.38
2018-11-12T11:42:54.080Z,25.75
2018-11-12T11:45:24.819Z,25.30
2018-11-12T11:47:55.589Z,23.88
2018-11-12T11:50:27.379Z,24.74
2018-11-12T11:52:58.113Z,25.00
2018-11-12T11:55:28.817Z,24.25
2018-11-12T11:57:59.554Z,25.15
2018-11-12T12:00:30.824Z,25.95
2018-11-12T12:03:04.363Z,26.22
2018-11-12T12:05:35.041Z,25.86
2018-11-12T12:08:08.302Z,27.34
2018-11-12T12:10:38.959Z,27.92
2018-11-12T12:13:09.955Z,26.94
2018-11-12T12:15:40.707Z,27.45
2018-11-12T12:18:11.449Z,27.91
2018-11-12T12:20:42.592Z,27.19
2018-11-12T12:23:14.331Z,26.55
2018-11-12T12:25:46.110Z,26.60
2018-11-12T12:28:16.857Z,26.63
2018-11-12T12:30:47.777Z,25.32
2018-11-12T12:33:18.518Z,25.37
2018-11-12T12:35:49.329Z,26.27
2018-11-12T12:38:20.142Z,26.35
2018-11-12T12:40:50.834Z,26.60
2018-11-12T12:43:21.644Z,25.59
2018-11-12T12:45:52.557Z,26.72
2018-11-12T12:48:23.540Z,24.53
2018-11-12T12:50:54.266Z,24.65
2018-11-12T12:53:24.968Z,21.90
2018-11-12T12:55:55.910Z,20.56
2018-11-12T12:58:26.677Z,19.71
2018-11-12T13:00:57.309Z,19.29
2018-11-12T13:03:28.035Z,18.60
2018-11-12T13:05:58.975Z,18.48
2018-11-12T13:08:29.797Z,17.98
2018-11-12T13:11:00.571Z,17.39
2018-11-12T13:13:34.676Z,17.01
2018-11-12T13:16:07.144Z,17.06
2018-11-12T13:18:37.960Z,17.04
2018-11-12T13:21:08.735Z,16.95
2018-11-12T13:23:39.499Z,16.96
2018-11-12T13:26:10.292Z,16.95
2018-11-12T13:28:41.031Z,17.03
2018-11-12T13:31:11.764Z,17.01
2018-11-12T13:33:42.501Z,17.24
2018-11-12T13:36:13.303Z,17.20
2018-11-12T13:38:44.077Z,16.75
2018-11-12T13:41:14.839Z,17.10
2018-11-12T13:43:46.018Z,17.02
2018-11-12T13:46:16.800Z,17.14
2018-11-12T13:48:48.107Z,17.36
2018-11-12T13:51:18.916Z,17.20
2018-11-12T13:53:49.832Z,17.15
2018-11-12T13:56:20.524Z,16.97
2018-11-12T13:58:51.336Z,16.66
2018-11-12T14:01:22.044Z,16.88
2018-11-12T14:03:52.942Z,16.63
2018-11-12T14:06:23.692Z,16.53
2018-11-12T14:08:55.906Z,16.57
2018-11-12T14:11:27.029Z,16.83
2018-11-12T14:13:58.076Z,16.71
2018-11-12T14:16:28.863Z,16.83
2018-11-12T14:18:59.559Z,16.69
2018-11-12T14:21:30.866Z,16.56
2018-11-12T14:24:04.969Z,16.53
2018-11-12T14:26:35.755Z,16.62
2018-11-12T14:29:06.671Z,16.54
2018-11-12T14:31:37.431Z,16.40
2018-11-12T14:34:08.993Z,16.49
2018-11-12T14:36:39.716Z,16.53
2018-11-12T14:39:11.332Z,16.33
2018-11-12T14:41:42.083Z,16.44
2018-11-12T14:44:12.801Z,16.55
2018-11-12T14:46:43.539Z,16.69
2018-11-12T14:49:14.384Z,16.60
2018-11-12T14:51:45.136Z,16.79
2018-11-12T14:54:15.878Z,16.61
2018-11-12T14:56:46.599Z,16.42
2018-11-12T14:59:17.470Z,16.44
2018-11-12T15:01:49.150Z,16.39
2018-11-12T15:04:19.948Z,16.36
2018-11-12T15:06:50.710Z,16.48
2018-11-12T15:09:22.118Z,16.48
2018-11-12T15:11:52.856Z,16.46
2018-11-12T15:14:23.583Z,16.45
2018-11-12T15:28:11.267Z,16.40
2018-11-12T15:30:41.756Z,16.35
2018-11-12T15:33:12.395Z,16.40
2018-11-12T15:35:42.828Z,16.28
2018-11-12T15:38:13.400Z,16.09
2018-11-12T15:40:43.845Z,16.09
2018-11-12T15:43:14.671Z,15.99
2018-11-12T15:45:46.606Z,16.03
2018-11-12T15:48:16.463Z,15.84
2018-11-12T15:50:46.929Z,15.73
2018-11-12T15:53:17.706Z,15.56
2018-11-12T15:55:48.265Z,15.44
2018-11-12T15:58:18.713Z,15.42
2018-11-12T16:00:49.144Z,15.43
2018-11-12T16:03:20.451Z,15.36
2018-11-12T16:05:50.985Z,15.35
2018-11-12T16:08:21.448Z,15.23
2018-11-12T16:10:51.919Z,15.17
2018-11-12T16:13:22.420Z,15.16
2018-11-12T16:15:52.816Z,15.07
2018-11-12T16:18:23.336Z,15.01
2018-11-12T16:20:54.544Z,14.94
2018-11-12T16:23:25.765Z,14.87
2018-11-12T16:25:56.428Z,14.78
2018-11-12T16:28:26.861Z,14.67
2018-11-12T16:30:57.340Z,14.62
2018-11-12T16:33:27.884Z,14.58
2018-11-12T16:35:59.648Z,14.51
2018-11-12T16:38:30.177Z,14.43
2018-11-12T16:41:00.636Z,14.38
2018-11-12T16:43:34.900Z,14.38
2018-11-12T16:46:06.607Z,14.31
2018-11-12T16:48:37.144Z,14.25
2018-11-12T16:51:07.960Z,14.17
2018-11-12T16:53:38.513Z,14.07
2018-11-12T16:56:08.925Z,14.00
2018-11-12T16:58:40.143Z,13.95
2018-11-12T17:01:11.051Z,13.90
2018-11-12T17:03:41.865Z,13.78
2018-11-12T17:06:12.443Z,13.72
2018-11-12T17:08:42.916Z,13.70
2018-11-12T17:11:13.388Z,13.56
2018-11-12T17:13:43.836Z,13.46
2018-11-12T17:16:14.298Z,13.39
2018-11-12T17:18:44.740Z,13.29
2018-11-12T17:21:15.147Z,13.18
2018-11-12T17:23:47.229Z,13.09
2018-11-12T17:26:17.732Z,13.01
2018-11-12T17:28:49.464Z,13.00
2018-11-12T17:31:19.886Z,12.90
2018-11-12T17:33:50.327Z,12.72
2018-11-12T17:36:20.957Z,12.53
2018-11-12T17:38:52.238Z,12.35
2018-11-12T17:41:22.772Z,12.24
2018-11-12T17:43:53.747Z,12.12
2018-11-12T17:46:24.184Z,12.01
2018-11-12T17:48:54.582Z,12.00
2018-11-12T17:51:25.073Z,11.90
2018-11-12T17:53:55.568Z,11.85
2018-11-12T17:56:26.048Z,11.90
2018-11-12T17:58:56.493Z,11.82
2018-11-12T18:01:27.041Z,11.77
2018-11-12T18:03:57.572Z,11.83
2018-11-12T18:06:28.130Z,11.89
2018-11-12T18:08:58.576Z,11.80
2018-11-12T18:11:29.273Z,11.74
2018-11-12T18:14:18.027Z,11.66
2018-11-12T18:16:50.008Z,11.68
2018-11-12T18:19:20.805Z,11.66
2018-11-12T18:21:55.206Z,11.67
2018-11-12T18:24:25.928Z,11.67
2018-11-12T18:26:58.301Z,11.62
2018-11-12T18:29:30.001Z,11.54
2018-11-12T18:32:00.808Z,11.43
2018-11-12T18:34:33.078Z,11.33
2018-11-12T18:37:09.173Z,11.28
2018-11-12T18:39:39.931Z,11.30
2018-11-12T18:42:10.733Z,11.19
2018-11-12T18:44:41.455Z,11.10
2018-11-12T18:47:12.199Z,11.02
2018-11-12T18:49:42.890Z,10.94
2018-11-12T18:52:13.680Z,10.88
2018-11-12T18:54:44.428Z,10.83
2018-11-12T18:57:15.124Z,10.62
2018-11-12T18:59:45.806Z,10.55
2018-11-12T19:02:16.607Z,10.48
2018-11-12T19:04:47.334Z,10.38
2018-11-12T19:07:18.103Z,10.38
2018-11-12T19:09:48.859Z,10.37
2018-11-12T19:12:19.523Z,10.44
2018-11-12T19:14:50.253Z,10.33
2018-11-12T19:17:20.958Z,10.34
2018-11-12T19:19:51.707Z,10.33
2018-11-12T19:22:22.383Z,10.17
2018-11-12T19:24:53.113Z,10.10
2018-11-12T19:27:23.839Z,10.02
2018-11-12T19:29:54.582Z,9.97
2018-11-12T19:32:25.315Z,9.89
2018-11-12T19:34:56.019Z,9.82
2018-11-12T19:37:26.705Z,9.72
2018-11-12T19:39:57.617Z,9.62
2018-11-12T19:42:28.890Z,9.70
2018-11-12T19:44:59.605Z,9.80
2018-11-12T19:47:30.338Z,9.79
2018-11-12T19:50:04.309Z,9.84
2018-11-12T19:52:35.058Z,9.69
2018-11-12T19:55:08.485Z,9.56
2018-11-12T19:57:39.208Z,9.49
2018-11-12T20:00:12.608Z,9.43
2018-11-12T20:02:44.543Z,9.46
2018-11-12T20:05:15.335Z,9.52
2018-11-12T20:07:46.253Z,9.44
2018-11-12T20:10:20.083Z,9.42
2018-11-12T20:12:51.197Z,9.40
2018-11-12T20:15:23.116Z,9.41
2018-11-12T20:17:54.487Z,9.28
2018-11-12T20:20:27.232Z,9.33
2018-11-12T20:22:58.005Z,9.23
2018-11-12T20:25:28.710Z,9.16
2018-11-12T20:27:59.868Z,8.98
2018-11-12T20:30:37.222Z,8.89
2018-11-12T20:33:08.009Z,8.95
2018-11-12T20:35:38.715Z,9.01
2018-11-12T20:38:10.514Z,9.13
2018-11-12T20:40:41.241Z,9.04
2018-11-12T20:43:12.018Z,8.96
2018-11-12T20:45:42.758Z,8.92
2018-11-12T20:48:14.268Z,8.89
2018-11-12T20:50:45.027Z,8.88
2018-11-12T20:53:15.759Z,8.82
2018-11-12T20:55:46.662Z,8.71
2018-11-12T20:58:17.461Z,8.66
2018-11-12T21:00:48.469Z,8.68
2018-11-12T21:03:20.372Z,8.72
2018-11-12T21:05:51.187Z,8.75
2018-11-12T21:08:21.896Z,8.67
2018-11-12T21:10:52.664Z,8.59
2018-11-12T21:13:23.527Z,8.55
2018-11-12T21:15:54.822Z,8.63
2018-11-12T21:18:25.583Z,8.53
2018-11-12T21:20:56.959Z,8.43
2018-11-12T21:23:27.794Z,8.24
2018-11-12T21:25:59.204Z,8.22
2018-11-12T21:28:31.688Z,8.04
2018-11-12T21:31:03.989Z,7.96
2018-11-12T21:33:35.158Z,8.00
2018-11-12T21:36:06.583Z,7.98
2018-11-12T21:38:37.844Z,7.90
2018-11-12T21:41:08.817Z,7.97
2018-11-12T21:43:39.731Z,7.93
2018-11-12T21:46:10.554Z,7.96
2018-11-12T21:48:43.419Z,7.99
2018-11-12T21:51:14.432Z,8.04
2018-11-12T21:53:46.309Z,8.07
2018-11-12T21:56:18.027Z,8.09
2018-11-12T21:58:49.558Z,7.94
2018-11-12T22:01:20.564Z,8.03
2018-11-12T22:03:51.529Z,8.07
2018-11-12T22:06:22.319Z,8.08
2018-11-12T22:08:53.227Z,8.03
2018-11-12T22:11:24.031Z,8.07
2018-11-12T22:13:54.844Z,8.06
2018-11-12T22:16:25.684Z,8.14
2018-11-12T22:18:59.026Z,8.13
2018-11-12T22:21:33.423Z,8.04
2018-11-12T22:24:06.436Z,7.97
2018-11-12T22:26:38.383Z,7.87
2018-11-12T22:29:09.495Z,7.72
2018-11-12T22:31:40.523Z,7.62
2018-11-12T22:34:11.330Z,7.62
2018-11-12T22:36:42.713Z,7.65
2018-11-12T22:39:13.610Z,7.67
2018-11-12T22:41:44.411Z,7.56
2018-11-12T22:44:15.258Z,7.53
2018-11-12T22:46:46.623Z,7.47
2018-11-12T22:49:17.379Z,7.51
2018-11-12T22:51:48.375Z,7.50
2018-11-12T22:54:19.317Z,7.47
2018-11-12T22:56:50.109Z,7.33
2018-11-12T22:59:28.026Z,7.30
2018-11-12T23:01:59.405Z,7.31
2018-11-12T23:04:30.385Z,7.34
2018-11-12T23:07:06.901Z,7.26
2018-11-12T23:09:37.667Z,7.13
2018-11-12T23:12:08.715Z,7.22
2018-11-12T23:14:39.588Z,6.97
2018-11-12T23:17:11.236Z,7.03
2018-11-12T23:19:43.580Z,7.11
2018-11-12T23:22:14.367Z,7.07
2018-11-12T23:24:45.118Z,7.02
2018-11-12T23:27:15.999Z,7.02
2018-11-12T23:29:46.825Z,7.00
2018-11-12T23:32:17.511Z,7.09
2018-11-12T23:34:48.418Z,7.15
2018-11-12T23:37:19.184Z,7.16
2018-11-12T23:39:49.906Z,7.11
2018-11-12T23:42:20.745Z,7.09
2018-11-12T23:44:52.258Z,7.13
2018-11-12T23:47:22.951Z,6.93
2018-11-12T23:49:53.842Z,6.72
2018-11-12T23:52:24.564Z,6.66
2018-11-12T23:54:55.304Z,6.54
2018-11-12T23:57:32.441Z,6.52
